aviador You're here:

VNKT Decoded Metar

KATHMANDU in NEPAL
Report Time2014-10-20 02:50:00
UTC Time2014-10-20 04:20:00
Flight Rules Old
Wind110° at 04 kt
W.Decomp.*RWY 02: 4.0 kt RCW
W.Rank110° ranks 18
Current wind is below 110° avg. (4.3)
Visibility6000 m
Phenomena:N/A
Clouds:Few 015 Hf
Expected CloudBase > 1,600 ft AGL from Temp-Dew spread
CeilingNone
Temp18°C (ISA +12)
Dew Point14°C (78% RH)
AAT17.9°C
QNH1022 hPa
Density Alt5,676 ft
Elevation4,386 ft
Report Wrong Elevation
Raw Report
METAR VNKT 200250Z 11004KT 6000 FEW015 18/14 Q1022 NOSIG=

Flight School in Barcelona

Extra information for VNKT:More info

Metar Taf Metar & Taf Last 4 Metars F.Rules Stats Wind Profile Meteogram Temp Stats Airport Information Weather charts Add Link Nearby VenuesMetar ALERT Operation Metar Decoded Social comments